sensor_id;sensor_type;location;lat;lon;timestamp;temperature;humidity
1021;DHT22;499;42.648;23.270;2024-03-22T00:00:00;5.70;15.20
1021;DHT22;499;42.648;23.270;2024-03-22T00:03:20;5.60;15.50
1021;DHT22;499;42.648;23.270;2024-03-22T00:06:14;5.70;15.80
1021;DHT22;499;42.648;23.270;2024-03-22T00:08:54;5.60;16.20
1021;DHT22;499;42.648;23.270;2024-03-22T00:12:09;5.60;16.20
1021;DHT22;499;42.648;23.270;2024-03-22T00:15:50;5.40;16.30
1021;DHT22;499;42.648;23.270;2024-03-22T00:18:53;5.40;15.90
1021;DHT22;499;42.648;23.270;2024-03-22T00:21:56;5.30;16.40
1021;DHT22;499;42.648;23.270;2024-03-22T00:24:35;5.30;17.00
1021;DHT22;499;42.648;23.270;2024-03-22T00:27:43;5.30;17.20
1021;DHT22;499;42.648;23.270;2024-03-22T00:30:59;5.30;17.20
1021;DHT22;499;42.648;23.270;2024-03-22T00:33:38;5.10;17.50
1021;DHT22;499;42.648;23.270;2024-03-22T00:36:44;5.00;18.50
1021;DHT22;499;42.648;23.270;2024-03-22T00:39:57;5.00;18.30
1021;DHT22;499;42.648;23.270;2024-03-22T00:42:58;5.00;18.60
1021;DHT22;499;42.648;23.270;2024-03-22T00:46:28;5.00;19.20
1021;DHT22;499;42.648;23.270;2024-03-22T00:49:28;4.80;18.80
1021;DHT22;499;42.648;23.270;2024-03-22T00:52:37;4.80;19.10
1021;DHT22;499;42.648;23.270;2024-03-22T00:55:47;4.60;20.00
1021;DHT22;499;42.648;23.270;2024-03-22T00:58:52;4.50;20.60
1021;DHT22;499;42.648;23.270;2024-03-22T01:01:50;4.50;20.60
1021;DHT22;499;42.648;23.270;2024-03-22T01:04:32;4.60;20.20
1021;DHT22;499;42.648;23.270;2024-03-22T01:07:20;4.60;19.90
1021;DHT22;499;42.648;23.270;2024-03-22T01:10:06;4.60;20.50
1021;DHT22;499;42.648;23.270;2024-03-22T01:12:49;4.40;19.90
1021;DHT22;499;42.648;23.270;2024-03-22T01:15:25;4.40;19.40
1021;DHT22;499;42.648;23.270;2024-03-22T01:17:59;4.40;19.50
1021;DHT22;499;42.648;23.270;2024-03-22T01:20:52;4.40;19.30
1021;DHT22;499;42.648;23.270;2024-03-22T01:24:01;4.40;19.10
1021;DHT22;499;42.648;23.270;2024-03-22T01:27:00;4.40;19.10
1021;DHT22;499;42.648;23.270;2024-03-22T01:29:44;4.20;19.80
1021;DHT22;499;42.648;23.270;2024-03-22T01:32:43;4.20;20.40
1021;DHT22;499;42.648;23.270;2024-03-22T01:35:52;4.20;20.40
1021;DHT22;499;42.648;23.270;2024-03-22T01:38:34;4.20;20.30
1021;DHT22;499;42.648;23.270;2024-03-22T01:41:15;4.30;20.40
1021;DHT22;499;42.648;23.270;2024-03-22T01:44:26;4.20;20.40
1021;DHT22;499;42.648;23.270;2024-03-22T01:47:21;4.20;19.80
1021;DHT22;499;42.648;23.270;2024-03-22T01:50:13;4.30;20.90
1021;DHT22;499;42.648;23.270;2024-03-22T01:56:51;4.20;20.40
1021;DHT22;499;42.648;23.270;2024-03-22T01:59:52;4.30;20.40
1021;DHT22;499;42.648;23.270;2024-03-22T02:02:40;4.20;20.40
1021;DHT22;499;42.648;23.270;2024-03-22T02:05:21;4.20;20.40
1021;DHT22;499;42.648;23.270;2024-03-22T02:08:01;4.20;21.10
1021;DHT22;499;42.648;23.270;2024-03-22T02:11:02;4.30;20.50
1021;DHT22;499;42.648;23.270;2024-03-22T02:14:18;4.30;20.40
1021;DHT22;499;42.648;23.270;2024-03-22T02:16:58;3.40;19.90
1021;DHT22;499;42.648;23.270;2024-03-22T02:19:59;4.40;20.50
1021;DHT22;499;42.648;23.270;2024-03-22T02:22:30;4.40;20.50
1021;DHT22;499;42.648;23.270;2024-03-22T02:25:29;4.40;20.50
1021;DHT22;499;42.648;23.270;2024-03-22T02:27:58;4.30;20.40
1021;DHT22;499;42.648;23.270;2024-03-22T02:30:40;4.30;21.00
1021;DHT22;499;42.648;23.270;2024-03-22T02:33:11;4.40;21.30
1021;DHT22;499;42.648;23.270;2024-03-22T02:35:46;4.30;21.00
1021;DHT22;499;42.648;23.270;2024-03-22T02:38:30;4.30;21.70
1021;DHT22;499;42.648;23.270;2024-03-22T02:41:02;4.20;22.00
1021;DHT22;499;42.648;23.270;2024-03-22T02:43:53;4.20;21.70
1021;DHT22;499;42.648;23.270;2024-03-22T02:46:59;4.20;21.70
1021;DHT22;499;42.648;23.270;2024-03-22T02:49:48;3.80;22.00
1021;DHT22;499;42.648;23.270;2024-03-22T02:52:38;4.20;20.60
1021;DHT22;499;42.648;23.270;2024-03-22T02:56:02;4.30;21.40
1021;DHT22;499;42.648;23.270;2024-03-22T02:58:46;4.30;22.00
1021;DHT22;499;42.648;23.270;2024-03-22T03:01:15;4.30;22.00
1021;DHT22;499;42.648;23.270;2024-03-22T03:03:46;4.30;21.80
1021;DHT22;499;42.648;23.270;2024-03-22T03:06:36;4.20;21.70
1021;DHT22;499;42.648;23.270;2024-03-22T03:09:27;4.20;21.70
1021;DHT22;499;42.648;23.270;2024-03-22T03:12:20;4.30;21.80
1021;DHT22;499;42.648;23.270;2024-03-22T03:15:27;4.20;21.80
1021;DHT22;499;42.648;23.270;2024-03-22T03:22:01;4.10;21.60
1021;DHT22;499;42.648;23.270;2024-03-22T03:24:52;4.00;22.70
1021;DHT22;499;42.648;23.270;2024-03-22T03:27:21;4.00;23.20
1021;DHT22;499;42.648;23.270;2024-03-22T03:36:56;3.90;22.60
1021;DHT22;499;42.648;23.270;2024-03-22T03:39:46;3.90;23.30
1021;DHT22;499;42.648;23.270;2024-03-22T03:42:43;3.70;23.90
1021;DHT22;499;42.648;23.270;2024-03-22T03:45:51;3.70;23.90
1021;DHT22;499;42.648;23.270;2024-03-22T03:48:26;3.60;23.80
1021;DHT22;499;42.648;23.270;2024-03-22T03:50:54;3.70;23.90
1021;DHT22;499;42.648;23.270;2024-03-22T03:53:56;3.40;23.90
1021;DHT22;499;42.648;23.270;2024-03-22T03:56:51;3.70;23.90
1021;DHT22;499;42.648;23.270;2024-03-22T04:00:06;3.70;24.20
1021;DHT22;499;42.648;23.270;2024-03-22T04:03:48;3.70;24.10
1021;DHT22;499;42.648;23.270;2024-03-22T04:06:41;3.50;24.50
1021;DHT22;499;42.648;23.270;2024-03-22T04:09:33;3.40;25.60
1021;DHT22;499;42.648;23.270;2024-03-22T04:12:09;3.30;25.80
1021;DHT22;499;42.648;23.270;2024-03-22T04:14:47;3.30;25.80
1021;DHT22;499;42.648;23.270;2024-03-22T04:17:38;3.20;26.30
1021;DHT22;499;42.648;23.270;2024-03-22T04:20:39;3.30;26.50
1021;DHT22;499;42.648;23.270;2024-03-22T04:23:30;3.40;26.00
1021;DHT22;499;42.648;23.270;2024-03-22T04:26:04;3.20;25.70
1021;DHT22;499;42.648;23.270;2024-03-22T04:28:47;3.20;26.20
1021;DHT22;499;42.648;23.270;2024-03-22T04:31:32;3.30;25.90
1021;DHT22;499;42.648;23.270;2024-03-22T04:34:18;3.20;25.90
1021;DHT22;499;42.648;23.270;2024-03-22T04:36:54;3.20;25.80
1021;DHT22;499;42.648;23.270;2024-03-22T04:40:15;3.30;25.90
1021;DHT22;499;42.648;23.270;2024-03-22T04:43:04;3.30;25.70
1021;DHT22;499;42.648;23.270;2024-03-22T04:46:04;3.30;25.90
1021;DHT22;499;42.648;23.270;2024-03-22T04:48:50;2.90;26.00
1021;DHT22;499;42.648;23.270;2024-03-22T04:51:30;3.40;26.70
1021;DHT22;499;42.648;23.270;2024-03-22T04:55:14;3.40;27.10
1021;DHT22;499;42.648;23.270;2024-03-22T04:57:51;3.50;27.10
1021;DHT22;499;42.648;23.270;2024-03-22T05:00:59;3.60;27.60
1021;DHT22;499;42.648;23.270;2024-03-22T05:04:09;3.60;27.60
1021;DHT22;499;42.648;23.270;2024-03-22T05:07:52;3.70;27.60
1021;DHT22;499;42.648;23.270;2024-03-22T05:10:24;3.70;27.00
1021;DHT22;499;42.648;23.270;2024-03-22T05:13:11;3.80;26.60
1021;DHT22;499;42.648;23.270;2024-03-22T05:15:50;4.10;26.10
1021;DHT22;499;42.648;23.270;2024-03-22T05:19:04;4.30;25.80
1021;DHT22;499;42.648;23.270;2024-03-22T05:21:50;4.50;26.00
1021;DHT22;499;42.648;23.270;2024-03-22T05:24:40;4.40;26.30
1021;DHT22;499;42.648;23.270;2024-03-22T05:27:19;4.40;27.10
1021;DHT22;499;42.648;23.270;2024-03-22T05:30:20;4.60;27.10
1021;DHT22;499;42.648;23.270;2024-03-22T05:33:12;4.90;26.80
1021;DHT22;499;42.648;23.270;2024-03-22T05:36:12;5.30;26.00
1021;DHT22;499;42.648;23.270;2024-03-22T05:39:26;5.60;24.00
1021;DHT22;499;42.648;23.270;2024-03-22T05:46:09;5.90;20.70
1021;DHT22;499;42.648;23.270;2024-03-22T05:49:11;6.00;21.50
1021;DHT22;499;42.648;23.270;2024-03-22T05:51:53;5.90;19.80
1021;DHT22;499;42.648;23.270;2024-03-22T05:54:50;5.90;20.10
1021;DHT22;499;42.648;23.270;2024-03-22T05:57:37;5.60;20.30
1021;DHT22;499;42.648;23.270;2024-03-22T06:04:02;5.70;21.30
1021;DHT22;499;42.648;23.270;2024-03-22T06:06:50;5.80;21.40
1021;DHT22;499;42.648;23.270;2024-03-22T06:09:37;5.90;21.40
1021;DHT22;499;42.648;23.270;2024-03-22T06:12:25;6.00;20.90
1021;DHT22;499;42.648;23.270;2024-03-22T06:15:02;6.20;20.40
1021;DHT22;499;42.648;23.270;2024-03-22T06:17:48;6.30;20.20
1021;DHT22;499;42.648;23.270;2024-03-22T06:20:51;6.40;20.00
1021;DHT22;499;42.648;23.270;2024-03-22T06:23:46;6.50;19.90
1021;DHT22;499;42.648;23.270;2024-03-22T06:26:22;6.60;19.00
1021;DHT22;499;42.648;23.270;2024-03-22T06:29:14;6.60;18.00
1021;DHT22;499;42.648;23.270;2024-03-22T06:32:04;6.60;17.20
1021;DHT22;499;42.648;23.270;2024-03-22T06:34:52;6.60;16.90
1021;DHT22;499;42.648;23.270;2024-03-22T06:37:56;6.60;17.40
1021;DHT22;499;42.648;23.270;2024-03-22T06:40:35;6.80;17.10
1021;DHT22;499;42.648;23.270;2024-03-22T06:43:14;6.80;17.20
1021;DHT22;499;42.648;23.270;2024-03-22T06:46:04;6.90;17.60
1021;DHT22;499;42.648;23.270;2024-03-22T06:49:22;7.00;17.70
1021;DHT22;499;42.648;23.270;2024-03-22T06:52:25;7.20;16.80
1021;DHT22;499;42.648;23.270;2024-03-22T06:55:16;7.30;17.10
1021;DHT22;499;42.648;23.270;2024-03-22T06:57:55;7.30;15.70
1021;DHT22;499;42.648;23.270;2024-03-22T07:00:33;7.40;15.30
1021;DHT22;499;42.648;23.270;2024-03-22T07:03:20;7.40;16.00
1021;DHT22;499;42.648;23.270;2024-03-22T07:06:02;7.50;14.60
1021;DHT22;499;42.648;23.270;2024-03-22T07:08:51;7.50;14.90
1021;DHT22;499;42.648;23.270;2024-03-22T07:14:55;7.60;14.70
1021;DHT22;499;42.648;23.270;2024-03-22T07:17:37;7.60;15.20
1021;DHT22;499;42.648;23.270;2024-03-22T07:20:20;7.80;15.00
1021;DHT22;499;42.648;23.270;2024-03-22T07:22:52;7.90;14.90
1021;DHT22;499;42.648;23.270;2024-03-22T07:25:30;8.10;14.40
1021;DHT22;499;42.648;23.270;2024-03-22T07:28:45;8.10;13.90
1021;DHT22;499;42.648;23.270;2024-03-22T07:32:10;8.20;14.20
1021;DHT22;499;42.648;23.270;2024-03-22T07:35:01;8.30;13.80
1021;DHT22;499;42.648;23.270;2024-03-22T07:37:46;8.40;13.80
1021;DHT22;499;42.648;23.270;2024-03-22T07:40:31;8.30;13.40
1021;DHT22;499;42.648;23.270;2024-03-22T07:43:22;8.20;14.10
1021;DHT22;499;42.648;23.270;2024-03-22T07:46:02;8.20;14.30
1021;DHT22;499;42.648;23.270;2024-03-22T07:49:21;8.30;13.70
1021;DHT22;499;42.648;23.270;2024-03-22T07:52:14;8.30;14.40
1021;DHT22;499;42.648;23.270;2024-03-22T07:55:14;8.60;13.40
1021;DHT22;499;42.648;23.270;2024-03-22T07:58:09;8.60;13.40
1021;DHT22;499;42.648;23.270;2024-03-22T08:00:48;8.80;13.70
1021;DHT22;499;42.648;23.270;2024-03-22T09:05:53;10.00;10.50
1021;DHT22;499;42.648;23.270;2024-03-22T09:08:59;10.10;9.70
1021;DHT22;499;42.648;23.270;2024-03-22T09:11:51;9.70;9.50
1021;DHT22;499;42.648;23.270;2024-03-22T09:14:36;10.20;9.30
1021;DHT22;499;42.648;23.270;2024-03-22T09:17:32;10.20;9.00
1021;DHT22;499;42.648;23.270;2024-03-22T09:34:09;10.70;7.90
1021;DHT22;499;42.648;23.270;2024-03-22T09:37:01;10.50;7.50
1021;DHT22;499;42.648;23.270;2024-03-22T09:39:41;10.50;7.80
1021;DHT22;499;42.648;23.270;2024-03-22T09:46:41;10.40;7.70
1021;DHT22;499;42.648;23.270;2024-03-22T09:49:54;10.50;7.80
1021;DHT22;499;42.648;23.270;2024-03-22T09:52:49;10.50;7.80
1021;DHT22;499;42.648;23.270;2024-03-22T09:55:42;10.70;7.50
1021;DHT22;499;42.648;23.270;2024-03-22T09:58:30;10.80;7.90
1021;DHT22;499;42.648;23.270;2024-03-22T10:08:33;11.10;6.80
1021;DHT22;499;42.648;23.270;2024-03-22T10:18:39;11.10;7.00
1021;DHT22;499;42.648;23.270;2024-03-22T10:25:27;11.10;6.60
1021;DHT22;499;42.648;23.270;2024-03-22T10:28:43;11.30;7.30
1021;DHT22;499;42.648;23.270;2024-03-22T10:34:53;11.50;6.10
1021;DHT22;499;42.648;23.270;2024-03-22T10:40:47;11.70;6.10
1021;DHT22;499;42.648;23.270;2024-03-22T10:44:21;11.60;5.80
1021;DHT22;499;42.648;23.270;2024-03-22T11:01:36;11.40;6.30
1021;DHT22;499;42.648;23.270;2024-03-22T11:08:49;11.80;5.90
1021;DHT22;499;42.648;23.270;2024-03-22T11:46:05;13.00;3.60
1021;DHT22;499;42.648;23.270;2024-03-22T11:49:07;12.70;3.30
1021;DHT22;499;42.648;23.270;2024-03-22T11:52:19;12.90;3.30
1021;DHT22;499;42.648;23.270;2024-03-22T11:58:45;13.60;3.00
1021;DHT22;499;42.648;23.270;2024-03-22T12:01:46;13.70;3.00
1021;DHT22;499;42.648;23.270;2024-03-22T12:08:21;12.90;2.50
1021;DHT22;499;42.648;23.270;2024-03-22T12:11:43;12.50;3.10
1021;DHT22;499;42.648;23.270;2024-03-22T12:14:42;12.50;2.70
1021;DHT22;499;42.648;23.270;2024-03-22T12:17:43;12.70;2.50
1021;DHT22;499;42.648;23.270;2024-03-22T12:20:16;12.90;2.50
1021;DHT22;499;42.648;23.270;2024-03-22T12:23:10;13.00;2.10
1021;DHT22;499;42.648;23.270;2024-03-22T12:26:17;13.20;3.30
1021;DHT22;499;42.648;23.270;2024-03-22T12:29:18;13.30;3.00
1021;DHT22;499;42.648;23.270;2024-03-22T12:32:05;13.00;2.70
1021;DHT22;499;42.648;23.270;2024-03-22T12:35:00;13.00;3.40
1021;DHT22;499;42.648;23.270;2024-03-22T12:37:55;13.00;4.30
1021;DHT22;499;42.648;23.270;2024-03-22T12:40:45;12.80;2.60
1021;DHT22;499;42.648;23.270;2024-03-22T12:43:53;12.40;1.80
1021;DHT22;499;42.648;23.270;2024-03-22T12:46:59;13.10;3.60
1021;DHT22;499;42.648;23.270;2024-03-22T12:50:11;13.20;2.30
1021;DHT22;499;42.648;23.270;2024-03-22T12:53:21;13.30;1.40
1021;DHT22;499;42.648;23.270;2024-03-22T12:56:33;13.40;1.40
1021;DHT22;499;42.648;23.270;2024-03-22T12:59:40;13.40;1.40
1021;DHT22;499;42.648;23.270;2024-03-22T13:02:33;13.30;1.00
1021;DHT22;499;42.648;23.270;2024-03-22T13:05:22;13.30;2.50
1021;DHT22;499;42.648;23.270;2024-03-22T13:11:35;13.50;1.50
1021;DHT22;499;42.648;23.270;2024-03-22T13:14:47;13.20;1.00
1021;DHT22;499;42.648;23.270;2024-03-22T13:17:42;13.30;1.00
1021;DHT22;499;42.648;23.270;2024-03-22T13:20:25;13.50;1.00
1021;DHT22;499;42.648;23.270;2024-03-22T13:23:17;13.30;1.50
1021;DHT22;499;42.648;23.270;2024-03-22T13:26:14;13.20;1.00
1021;DHT22;499;42.648;23.270;2024-03-22T13:29:05;12.90;1.10
1021;DHT22;499;42.648;23.270;2024-03-22T13:32:01;13.00;1.90
1021;DHT22;499;42.648;23.270;2024-03-22T13:34:55;13.00;2.60
1021;DHT22;499;42.648;23.270;2024-03-22T13:41:21;13.10;1.20
1021;DHT22;499;42.648;23.270;2024-03-22T13:44:00;12.90;3.00
1021;DHT22;499;42.648;23.270;2024-03-22T13:46:40;12.90;1.10
1021;DHT22;499;42.648;23.270;2024-03-22T13:49:30;13.00;1.50
1021;DHT22;499;42.648;23.270;2024-03-22T13:52:30;13.00;2.40
1021;DHT22;499;42.648;23.270;2024-03-22T13:55:29;13.00;1.90
1021;DHT22;499;42.648;23.270;2024-03-22T13:58:35;13.10;2.50
1021;DHT22;499;42.648;23.270;2024-03-22T14:01:45;13.10;2.40
1021;DHT22;499;42.648;23.270;2024-03-22T14:04:45;13.30;2.20
1021;DHT22;499;42.648;23.270;2024-03-22T14:07:36;13.20;1.30
1021;DHT22;499;42.648;23.270;2024-03-22T14:10:23;13.20;1.30
1021;DHT22;499;42.648;23.270;2024-03-22T14:13:56;13.20;1.30
1021;DHT22;499;42.648;23.270;2024-03-22T14:16:57;13.20;1.30
1021;DHT22;499;42.648;23.270;2024-03-22T14:19:44;13.20;1.30
1021;DHT22;499;42.648;23.270;2024-03-22T14:22:50;13.30;3.20
1021;DHT22;499;42.648;23.270;2024-03-22T14:25:44;13.10;2.80
1021;DHT22;499;42.648;23.270;2024-03-22T14:28:39;13.30;2.20
1021;DHT22;499;42.648;23.270;2024-03-22T14:31:26;13.30;3.10
1021;DHT22;499;42.648;23.270;2024-03-22T14:34:15;13.40;1.40
1021;DHT22;499;42.648;23.270;2024-03-22T14:37:05;13.50;2.60
1021;DHT22;499;42.648;23.270;2024-03-22T14:39:45;13.40;1.40
1021;DHT22;499;42.648;23.270;2024-03-22T14:42:30;13.50;1.70
1021;DHT22;499;42.648;23.270;2024-03-22T14:45:31;13.50;1.00
1021;DHT22;499;42.648;23.270;2024-03-22T14:48:23;13.40;1.40
1021;DHT22;499;42.648;23.270;2024-03-22T14:51:09;13.40;1.00
1021;DHT22;499;42.648;23.270;2024-03-22T14:54:28;13.40;1.40
1021;DHT22;499;42.648;23.270;2024-03-22T14:57:38;13.40;1.40
1021;DHT22;499;42.648;23.270;2024-03-22T15:00:39;13.50;1.50
1021;DHT22;499;42.648;23.270;2024-03-22T15:03:27;13.40;1.20
1021;DHT22;499;42.648;23.270;2024-03-22T15:06:44;13.30;1.40
1021;DHT22;499;42.648;23.270;2024-03-22T15:09:55;13.20;1.70
1021;DHT22;499;42.648;23.270;2024-03-22T15:12:54;13.20;1.00
1021;DHT22;499;42.648;23.270;2024-03-22T15:16:00;13.20;1.00
1021;DHT22;499;42.648;23.270;2024-03-22T15:19:07;13.20;1.00
1021;DHT22;499;42.648;23.270;2024-03-22T15:22:26;13.10;1.00
1021;DHT22;499;42.648;23.270;2024-03-22T15:26:02;12.90;1.00
1021;DHT22;499;42.648;23.270;2024-03-22T15:29:13;12.80;1.00
1021;DHT22;499;42.648;23.270;2024-03-22T15:32:00;12.70;1.50
1021;DHT22;499;42.648;23.270;2024-03-22T15:35:03;12.60;2.40
1021;DHT22;499;42.648;23.270;2024-03-22T15:42:10;12.50;2.60
1021;DHT22;499;42.648;23.270;2024-03-22T15:45:24;12.30;4.00
1021;DHT22;499;42.648;23.270;2024-03-22T15:48:32;11.80;3.50
1021;DHT22;499;42.648;23.270;2024-03-22T15:51:33;12.30;4.80
1021;DHT22;499;42.648;23.270;2024-03-22T15:54:22;12.30;3.80
1021;DHT22;499;42.648;23.270;2024-03-22T15:57:04;12.20;4.80
1021;DHT22;499;42.648;23.270;2024-03-22T15:59:49;12.10;4.70
1021;DHT22;499;42.648;23.270;2024-03-22T16:06:44;11.90;4.60
1021;DHT22;499;42.648;23.270;2024-03-22T16:09:37;11.90;4.60
1021;DHT22;499;42.648;23.270;2024-03-22T16:12:50;11.90;4.80
1021;DHT22;499;42.648;23.270;2024-03-22T16:15:35;11.80;6.00
1021;DHT22;499;42.648;23.270;2024-03-22T16:18:12;11.70;6.70
1021;DHT22;499;42.648;23.270;2024-03-22T16:21:14;11.40;7.40
1021;DHT22;499;42.648;23.270;2024-03-22T16:24:14;11.20;7.40
1021;DHT22;499;42.648;23.270;2024-03-22T16:27:22;11.10;7.70
1021;DHT22;499;42.648;23.270;2024-03-22T16:30:38;11.00;7.10
1021;DHT22;499;42.648;23.270;2024-03-22T16:33:45;10.80;7.30
1021;DHT22;499;42.648;23.270;2024-03-22T16:36:18;10.50;7.80
1021;DHT22;499;42.648;23.270;2024-03-22T16:39:09;10.60;7.80
1021;DHT22;499;42.648;23.270;2024-03-22T16:42:08;10.40;7.70
1021;DHT22;499;42.648;23.270;2024-03-22T16:45:14;10.30;8.10
1021;DHT22;499;42.648;23.270;2024-03-22T16:48:08;10.20;8.60
1021;DHT22;499;42.648;23.270;2024-03-22T16:51:24;10.10;8.30
1021;DHT22;499;42.648;23.270;2024-03-22T16:58:09;9.90;9.90
1021;DHT22;499;42.648;23.270;2024-03-22T17:01:10;9.70;10.30
1021;DHT22;499;42.648;23.270;2024-03-22T17:04:16;9.70;10.40
1021;DHT22;499;42.648;23.270;2024-03-22T17:07:26;9.60;10.90
1021;DHT22;499;42.648;23.270;2024-03-22T17:10:39;9.40;11.00
1021;DHT22;499;42.648;23.270;2024-03-22T17:13:47;9.40;10.80
1021;DHT22;499;42.648;23.270;2024-03-22T17:17:17;9.20;11.30
1021;DHT22;499;42.648;23.270;2024-03-22T17:20:27;9.20;11.10
1021;DHT22;499;42.648;23.270;2024-03-22T17:23:23;9.20;11.30
1021;DHT22;499;42.648;23.270;2024-03-22T17:26:19;8.60;10.80
1021;DHT22;499;42.648;23.270;2024-03-22T17:29:28;9.10;11.00
1021;DHT22;499;42.648;23.270;2024-03-22T17:32:22;8.90;10.90
1021;DHT22;499;42.648;23.270;2024-03-22T17:35:07;8.80;11.50
1021;DHT22;499;42.648;23.270;2024-03-22T17:38:22;8.80;10.90
1021;DHT22;499;42.648;23.270;2024-03-22T17:41:32;8.80;11.40
1021;DHT22;499;42.648;23.270;2024-03-22T17:44:11;8.80;11.40
1021;DHT22;499;42.648;23.270;2024-03-22T17:47:09;8.80;11.40
1021;DHT22;499;42.648;23.270;2024-03-22T17:50:07;8.80;11.40
1021;DHT22;499;42.648;23.270;2024-03-22T17:52:45;8.80;12.00
1021;DHT22;499;42.648;23.270;2024-03-22T17:56:04;8.70;11.40
1021;DHT22;499;42.648;23.270;2024-03-22T17:59:03;8.70;11.40
1021;DHT22;499;42.648;23.270;2024-03-22T18:01:48;8.50;11.90
1021;DHT22;499;42.648;23.270;2024-03-22T18:04:31;8.50;12.10
1021;DHT22;499;42.648;23.270;2024-03-22T18:06:59;8.50;12.10
1021;DHT22;499;42.648;23.270;2024-03-22T18:09:40;8.40;12.40
1021;DHT22;499;42.648;23.270;2024-03-22T18:12:37;8.00;11.50
1021;DHT22;499;42.648;23.270;2024-03-22T18:15:16;8.50;12.10
1021;DHT22;499;42.648;23.270;2024-03-22T18:17:50;8.40;12.30
1021;DHT22;499;42.648;23.270;2024-03-22T18:20:20;8.30;13.10
1021;DHT22;499;42.648;23.270;2024-03-22T18:22:54;8.30;13.20
1021;DHT22;499;42.648;23.270;2024-03-22T18:25:57;8.20;12.90
1021;DHT22;499;42.648;23.270;2024-03-22T18:28:34;8.20;13.10
1021;DHT22;499;42.648;23.270;2024-03-22T18:31:45;7.50;13.20
1021;DHT22;499;42.648;23.270;2024-03-22T18:34:43;8.00;13.50
1021;DHT22;499;42.648;23.270;2024-03-22T18:37:16;8.00;13.70
1021;DHT22;499;42.648;23.270;2024-03-22T18:40:18;7.90;14.00
1021;DHT22;499;42.648;23.270;2024-03-22T18:43:36;7.90;14.00
1021;DHT22;499;42.648;23.270;2024-03-22T18:46:06;7.80;14.50
1021;DHT22;499;42.648;23.270;2024-03-22T18:49:01;7.80;14.90
1021;DHT22;499;42.648;23.270;2024-03-22T18:51:40;7.70;14.80
1021;DHT22;499;42.648;23.270;2024-03-22T18:58:26;7.60;16.00
1021;DHT22;499;42.648;23.270;2024-03-22T19:01:53;7.40;16.60
1021;DHT22;499;42.648;23.270;2024-03-22T19:04:53;7.30;17.10
1021;DHT22;499;42.648;23.270;2024-03-22T19:07:47;7.20;17.20
1021;DHT22;499;42.648;23.270;2024-03-22T19:10:28;7.20;17.10
1021;DHT22;499;42.648;23.270;2024-03-22T19:12:57;7.30;17.30
1021;DHT22;499;42.648;23.270;2024-03-22T19:15:38;7.20;17.20
1021;DHT22;499;42.648;23.270;2024-03-22T19:18:28;7.20;17.70
1021;DHT22;499;42.648;23.270;2024-03-22T19:20:56;7.10;18.20
1021;DHT22;499;42.648;23.270;2024-03-22T19:23:45;7.00;18.30
1021;DHT22;499;42.648;23.270;2024-03-22T19:26:14;7.00;18.30
1021;DHT22;499;42.648;23.270;2024-03-22T19:28:45;6.90;18.20
1021;DHT22;499;42.648;23.270;2024-03-22T19:31:27;6.80;18.30
1021;DHT22;499;42.648;23.270;2024-03-22T19:33:58;6.80;18.30
1021;DHT22;499;42.648;23.270;2024-03-22T19:36:43;6.70;18.50
1021;DHT22;499;42.648;23.270;2024-03-22T19:40:32;6.60;18.80
1021;DHT22;499;42.648;23.270;2024-03-22T19:43:02;6.50;19.00
1021;DHT22;499;42.648;23.270;2024-03-22T19:45:36;6.50;19.20
1021;DHT22;499;42.648;23.270;2024-03-22T19:48:19;6.40;20.10
1021;DHT22;499;42.648;23.270;2024-03-22T19:54:51;6.30;19.80
1021;DHT22;499;42.648;23.270;2024-03-22T19:57:57;6.30;20.20
1021;DHT22;499;42.648;23.270;2024-03-22T20:01:01;6.30;20.30
1021;DHT22;499;42.648;23.270;2024-03-22T20:04:11;6.30;20.20
1021;DHT22;499;42.648;23.270;2024-03-22T20:07:41;6.20;20.40
1021;DHT22;499;42.648;23.270;2024-03-22T20:11:10;6.20;20.70
1021;DHT22;499;42.648;23.270;2024-03-22T20:14:02;6.10;20.90
1021;DHT22;499;42.648;23.270;2024-03-22T20:16:51;6.10;21.20
1021;DHT22;499;42.648;23.270;2024-03-22T20:20:01;6.00;21.20
1021;DHT22;499;42.648;23.270;2024-03-22T20:23:16;5.90;21.50
1021;DHT22;499;42.648;23.270;2024-03-22T20:26:50;5.90;21.40
1021;DHT22;499;42.648;23.270;2024-03-22T20:33:02;5.90;21.50
1021;DHT22;499;42.648;23.270;2024-03-22T20:39:28;5.80;21.40
